NCAR-RAP Real-Time Weather Data

Output produced by METARs form (24 April 2018  16:22 UTC)
found at http://weather.rap.ucar.edu/surface/
 
RJOC 241100Z 30012KT 6000 -SHRA FEW003 BKN007 BKN015 15/14 Q1005
RJOC 241040Z 30013KT 8000 -SHRA FEW003 BKN007 BKN015 16/15 Q1005 RMK 1ST003 5ST007 6CU015 A2968 P/RR
RJOC 241011Z 29012KT 8000 -SHRA FEW003 SCT008 BKN015 17/15 Q1004 RMK 1ST003 3ST008 5CU015 A2965
RJOC 241000Z 28012KT 4500 -SHRA BR FEW003 SCT008 BKN015 17/16 Q1004
RJOC 240946Z 25009KT 3500 -SHRA BR FEW003 SCT006 BKN010 18/17 Q1003 RMK 1ST003 3ST006 5CU010 A2964
RJOC 240900Z 26007KT 5000 -SHRA BR FEW003 SCT007 BKN015 18/17 Q1003
RJOC 240839Z 30002KT 5000 -SHRA BR FEW003 SCT008 BKN015 18/17 Q1003 RMK 1ST003 4ST008 5CU015 A2962
RJOC 240800Z 33006KT 4500 SHRA BR FEW005 SCT010 BKN020 18/17 Q1003
RJOC 240700Z 06004KT 8000 -RA FEW005 SCT035 BKN050 18/17 Q1002
RJOC 240600Z 07006KT 9999 -RA FEW002 BKN050 18/17 Q1003
RJOC 240549Z 06008KT 8000 -RA FEW002 BKN050 18/17 Q1003 RMK 1ST002 7SC050 A2962
RJOC 240534Z 06008KT 5000 RA BR FEW002 SCT040 BKN050 18/17 Q1003 RMK 1ST002 3CU040 6SC050 A2963
RJOC 240500Z 05008KT 9000 -RA FEW002 BKN060 18/17 Q1003
RJOC 240431Z 07009KT 7000 -RA FEW002 SCT035 BKN050 18/17 Q1004 RMK 1ST002 3SC035 6SC050 A2966
RJOC 240400Z 06009KT 7000 RA FEW001 SCT020 BKN035 17/16 Q1004
RJOC 240349Z 07008KT 6000 RA BR FEW001 SCT020 BKN035 18/17 Q1004 RMK 1ST001 3SC020 5SC035 A2967
RJOC 240323Z 08011KT 4500 RA BR FEW001 SCT020 BKN035 17/16 Q1005 RMK 1ST001 3SC020 5SC035 A2968 P/FR
RJOC 240300Z 07009KT 3000 RA BR FEW001 SCT020 BKN035 17/16 Q1005
RJOC 240232Z 07011KT 5000 RA BR FEW001 SCT012 BKN030 17/16 Q1006 RMK 1ST001 3ST012 5SC030 A2971
RJOC 240200Z 06009KT 4000 RA BR FEW001 SCT012 BKN030 17/16 Q1006
RJOC 240100Z 05008KT 3500 RA BR FEW001 SCT015 BKN030 17/16 Q1007
RJOC 240040Z 07005KT 030V100 3500 RA BR FEW001 SCT015 BKN050 17/16 Q1008 RMK 1ST001 3ST015 5SC050 A2977
RJOC 240034Z 06006KT 6000 -RA FEW001 SCT015 BKN050 17/16 Q1008 RMK 1ST001 3ST015 5SC050 A2977
RJOC 240000Z 05006KT 3500 RA BR FEW001 SCT015 BKN060 17/16 Q1008
RJOC 232333Z 05006KT 3500 RA BR FEW001 SCT040 BKN060 17/16 Q1008 RMK 1ST001 3SC040 6SC060 A2977
RJOC 232308Z 06008KT 5000 RA BR FEW001 SCT040 BKN060 17/16 Q1008 RMK 1ST001 3SC040 6SC060 A2977
RJOC 232300Z 06009KT 5000 -RA BR FEW001 SCT040 BKN060 17/16 Q1008
RJOC 232218Z 06007KT 5000 -RA BR FEW001 SCT040 BKN050 17/16 Q1008 RMK 1ST001 3SC040 6SC050 A2978
RJOC 232200Z 07006KT 4500 RA BR FEW001 BKN040 BKN050 17/16 Q1008
RJOC 232144Z 06006KT 4500 RA BR FEW001 BKN040 BKN050 17/16 Q1008 RMK 1ST001 5SC040 7SC050 A2979
RJOC 232130Z 06007KT 4500 -RA BR FEW001 BKN040 BKN050 17/16 Q1009
RJOC 232110Z 06006KT 4500 -RA BR FEW001 SCT040 BKN050 16/16 Q1009 RMK 1ST001 4SC040 7SC050 A2980
RJOC 231100Z 08016KT 5000 -RA BR FEW008 BKN010 BKN040 15/14 Q1015
RJOC 231000Z 07015KT 5000 -RA BR FEW008 BKN010 BKN040 16/14 Q1015
RJOC 230900Z 07014KT 8000 -RA FEW010 SCT060 BKN070 16/13 Q1015
RJOC 230800Z 07014KT 8000 -RA FEW010 BKN070 BKN100 17/13 Q1015
RJOC 230700Z 06014KT 9000 FEW010 BKN080 BKN100 17/13 Q1015
RJOC 230600Z 07014KT 9000 FEW010 BKN080 BKN130 17/13 Q1015
RJOC 230500Z 08014KT 9000 -RA FEW010 SCT120 BKN140 17/13 Q1016
RJOC 230400Z 07014KT 9000 FEW010 BKN160 18/14 Q1016
RJOC 230300Z 06013KT 9000 FEW010 SCT020 BKN/// 18/13 Q1017
RJOC 230200Z 07017KT 9000 FEW010 SCT020 BKN/// 18/14 Q1017
RJOC 230100Z 07017KT 9000 FEW010 BKN/// 18/14 Q1017
RJOC 230000Z 07013KT 7000 FEW010 BKN015 BKN/// 18/14 Q1018
RJOC 222300Z 16003KT 7000 FEW004 SCT010 BKN015 17/14 Q1019
RJOC 222200Z 17003KT 5000 BR FEW004 SCT005 BKN010 16/14 Q1019
RJOC 222130Z VRB01KT 6000 BR FEW006 SCT010 BKN013 16/14 Q1018
RJOC 222110Z 18002KT 6000 BR FEW006 SCT010 BKN013 15/14 Q1018 RMK 1ST006 3ST010 6CU013 A3008
RJOC 221100Z 03004KT 9999 FEW010 SCT150 BKN180 17/15 Q1018
RJOC 221000Z 03005KT 9999 FEW010 SCT150 BKN180 18/14 Q1018
RJOC 220900Z 35007KT 9999 FEW012 SCT150 BKN/// 19/15 Q1017
RJOC 220800Z 33008KT 9999 FEW030 BKN/// 21/15 Q1017
RJOC 220700Z 33011KT 9999 FEW035 BKN/// 22/14 Q1018
RJOC 220600Z 29009KT 9999 FEW035 BKN/// 23/13 Q1018
RJOC 220500Z 30009KT 9999 FEW035 BKN/// 23/14 Q1018